createdAt,value
2017-12-02T00:01:44.557Z,71.90
2017-12-02T00:04:12.897Z,71.40
2017-12-02T00:06:40.477Z,71.40
2017-12-02T00:09:08.792Z,71.30
2017-12-02T00:11:38.446Z,71.30
2017-12-02T00:14:06.007Z,71.50
2017-12-02T00:16:33.571Z,71.50
2017-12-02T00:19:01.171Z,71.70
2017-12-02T00:21:28.776Z,72.20
2017-12-02T00:23:56.372Z,72.40
2017-12-02T00:26:24.716Z,73.30
2017-12-02T00:28:52.323Z,72.70
2017-12-02T00:31:20.650Z,73.40
2017-12-02T00:33:48.231Z,73.40
2017-12-02T00:36:15.838Z,73.30
2017-12-02T00:38:43.462Z,73.30
2017-12-02T00:41:11.784Z,73.50
2017-12-02T00:43:39.392Z,73.30
2017-12-02T00:46:07.008Z,73.30
2017-12-02T00:48:34.577Z,73.50
2017-12-02T00:51:02.183Z,73.70
2017-12-02T00:53:30.543Z,73.70
2017-12-02T00:55:58.113Z,73.60
2017-12-02T00:58:26.446Z,73.40
2017-12-02T01:00:54.050Z,73.40
2017-12-02T01:03:22.410Z,73.60
2017-12-02T01:05:50.021Z,73.60
2017-12-02T01:08:17.602Z,73.70
2017-12-02T01:10:45.189Z,73.30
2017-12-02T01:13:12.784Z,73.50
2017-12-02T01:15:41.109Z,73.60
2017-12-02T01:18:08.720Z,73.50
2017-12-02T01:20:37.043Z,73.40
2017-12-02T01:23:04.627Z,73.30
2017-12-02T01:25:32.190Z,73.00
2017-12-02T01:27:59.799Z,73.20
2017-12-02T01:30:27.366Z,73.30
2017-12-02T01:32:54.940Z,73.40
2017-12-02T01:35:22.534Z,73.60
2017-12-02T01:37:50.097Z,73.60
2017-12-02T01:40:17.700Z,73.70
2017-12-02T01:42:45.257Z,74.40
2017-12-02T01:45:12.842Z,73.40
2017-12-02T01:47:40.445Z,73.30
2017-12-02T01:50:08.028Z,73.70
2017-12-02T01:52:36.349Z,73.80
2017-12-02T01:55:03.941Z,73.80
2017-12-02T01:57:31.524Z,74.10
2017-12-02T01:59:59.850Z,73.90
2017-12-02T02:02:27.419Z,73.90
2017-12-02T02:04:55.007Z,73.60
2017-12-02T02:07:23.357Z,73.90
2017-12-02T02:09:50.932Z,73.90
2017-12-02T02:12:18.530Z,73.90
2017-12-02T02:14:46.106Z,74.10
2017-12-02T02:17:13.703Z,74.90
2017-12-02T02:19:41.273Z,74.30
2017-12-02T02:22:08.819Z,74.50
2017-12-02T02:24:36.433Z,74.60
2017-12-02T02:27:04.043Z,74.10
2017-12-02T02:29:31.626Z,74.20
2017-12-02T02:31:59.952Z,74.60
2017-12-02T02:34:27.546Z,74.70
2017-12-02T02:36:55.117Z,74.70
2017-12-02T02:39:22.712Z,74.80
2017-12-02T02:41:50.270Z,74.80
2017-12-02T02:44:17.839Z,74.50
2017-12-02T02:46:45.425Z,74.70
2017-12-02T02:49:13.008Z,74.90
2017-12-02T02:51:40.620Z,75.00
2017-12-02T02:54:08.204Z,75.20
2017-12-02T02:56:35.784Z,75.30
2017-12-02T02:59:03.336Z,75.40
2017-12-02T03:01:30.913Z,75.20
2017-12-02T03:03:58.483Z,75.20
2017-12-02T03:06:26.849Z,75.70
2017-12-02T03:08:54.408Z,75.70
2017-12-02T03:11:21.990Z,75.60
2017-12-02T03:13:50.400Z,75.90
2017-12-02T03:16:17.978Z,76.00
2017-12-02T03:18:45.589Z,76.00
2017-12-02T03:21:13.937Z,76.40
2017-12-02T03:23:41.568Z,76.30
2017-12-02T03:26:09.145Z,76.20
2017-12-02T03:28:36.774Z,76.20
2017-12-02T03:31:04.369Z,76.00
2017-12-02T03:33:31.964Z,75.70
2017-12-02T03:36:00.349Z,75.50
2017-12-02T03:38:28.683Z,75.50
2017-12-02T03:40:56.347Z,75.60
2017-12-02T03:43:23.964Z,75.50
2017-12-02T03:45:51.582Z,75.50
2017-12-02T03:48:19.187Z,75.50
2017-12-02T03:50:46.794Z,75.60
2017-12-02T03:53:14.421Z,75.50
2017-12-02T03:55:42.100Z,75.50
2017-12-02T03:58:09.681Z,75.50
2017-12-02T04:00:37.306Z,75.30
2017-12-02T04:03:04.943Z,75.30
2017-12-02T04:05:32.569Z,75.20
2017-12-02T04:08:00.184Z,75.10
2017-12-02T04:10:27.801Z,75.30
2017-12-02T04:12:55.397Z,75.60
2017-12-02T04:15:22.969Z,75.80
2017-12-02T04:17:50.602Z,75.70
2017-12-02T04:20:18.969Z,75.90
2017-12-02T04:22:47.333Z,75.90
2017-12-02T04:25:14.987Z,75.90
2017-12-02T04:27:42.568Z,75.90
2017-12-02T04:30:10.180Z,75.80
2017-12-02T04:32:37.821Z,76.00
2017-12-02T04:35:05.422Z,76.10
2017-12-02T04:37:33.020Z,76.10
2017-12-02T04:40:01.420Z,76.30
2017-12-02T04:42:29.012Z,76.40
2017-12-02T04:44:56.637Z,75.90
2017-12-02T04:47:24.259Z,75.90
2017-12-02T04:49:51.849Z,76.10
2017-12-02T04:52:20.205Z,76.30
2017-12-02T04:54:47.834Z,76.40
2017-12-02T04:57:15.434Z,76.60
2017-12-02T04:59:43.013Z,76.70
2017-12-02T05:02:11.382Z,76.80
2017-12-02T05:04:39.712Z,76.70
2017-12-02T05:07:07.309Z,76.70
2017-12-02T05:09:35.767Z,77.30
2017-12-02T05:12:03.348Z,76.70
2017-12-02T05:14:30.918Z,76.60
2017-12-02T05:16:59.316Z,76.80
2017-12-02T05:19:26.880Z,76.80
2017-12-02T05:21:54.456Z,76.70
2017-12-02T05:24:22.090Z,76.80
2017-12-02T05:26:49.702Z,76.70
2017-12-02T05:29:17.303Z,76.70
2017-12-02T05:31:45.682Z,77.10
2017-12-02T05:34:14.047Z,77.30
2017-12-02T05:36:41.636Z,77.30
2017-12-02T05:39:09.269Z,77.30
2017-12-02T05:41:37.632Z,77.70
2017-12-02T05:44:05.231Z,77.70
2017-12-02T05:46:32.849Z,77.70
2017-12-02T05:49:00.441Z,77.70
2017-12-02T05:51:28.818Z,77.70
2017-12-02T05:53:57.263Z,77.50
2017-12-02T05:56:24.848Z,77.50
2017-12-02T05:58:53.202Z,77.90
2017-12-02T06:01:20.823Z,77.30
2017-12-02T06:03:48.453Z,77.30
2017-12-02T06:06:16.822Z,76.80
2017-12-02T06:08:44.457Z,76.90
2017-12-02T06:11:12.225Z,77.10
2017-12-02T06:13:39.807Z,77.00
2017-12-02T06:16:07.429Z,76.90
2017-12-02T06:18:35.039Z,76.80
2017-12-02T06:21:03.428Z,76.70
2017-12-02T06:23:31.845Z,76.70
2017-12-02T06:25:59.424Z,76.60
2017-12-02T06:28:26.995Z,76.50
2017-12-02T06:30:54.646Z,76.40
2017-12-02T06:33:22.288Z,76.30
2017-12-02T06:35:49.895Z,76.20
2017-12-02T06:38:18.292Z,76.20
2017-12-02T06:40:46.638Z,76.00
2017-12-02T06:43:14.248Z,76.00
2017-12-02T06:45:41.883Z,76.00
2017-12-02T06:48:10.234Z,76.10
2017-12-02T06:50:37.847Z,76.20
2017-12-02T06:53:05.474Z,76.30
2017-12-02T06:55:33.098Z,76.30
2017-12-02T06:58:00.719Z,76.30
2017-12-02T07:00:28.338Z,76.10
2017-12-02T07:02:55.968Z,76.00
2017-12-02T07:05:23.573Z,76.30
2017-12-02T07:07:51.213Z,76.40
2017-12-02T07:10:18.828Z,76.20
2017-12-02T07:12:46.409Z,76.20
2017-12-02T07:15:14.073Z,76.20
2017-12-02T07:17:41.688Z,76.40
2017-12-02T07:20:10.090Z,76.50
2017-12-02T07:22:37.712Z,76.40
2017-12-02T07:25:05.305Z,76.30
2017-12-02T07:27:32.912Z,76.20
2017-12-02T07:30:00.571Z,76.20
2017-12-02T07:32:28.149Z,75.90
2017-12-02T07:34:55.725Z,75.90
2017-12-02T07:37:24.259Z,75.10
2017-12-02T07:39:51.850Z,75.10
2017-12-02T07:42:19.468Z,74.90
2017-12-02T07:44:47.062Z,74.20
2017-12-02T07:47:14.737Z,74.40
2017-12-02T07:49:42.292Z,74.20
2017-12-02T07:52:09.911Z,74.30
2017-12-02T07:54:37.511Z,73.80
2017-12-02T07:57:05.096Z,73.70
2017-12-02T07:59:33.506Z,73.70
2017-12-02T08:02:01.086Z,73.70
2017-12-02T08:04:28.699Z,74.10
2017-12-02T08:06:57.092Z,73.90
2017-12-02T08:09:25.445Z,74.00
2017-12-02T08:11:54.189Z,74.00
2017-12-02T08:14:21.823Z,74.00
2017-12-02T08:16:51.378Z,73.50
2017-12-02T08:19:19.008Z,73.60
2017-12-02T08:21:46.604Z,74.10
2017-12-02T08:24:14.178Z,74.50
2017-12-02T08:26:41.787Z,74.10
2017-12-02T08:29:09.401Z,73.90
2017-12-02T08:31:36.990Z,74.30
2017-12-02T08:34:04.587Z,74.00
2017-12-02T08:36:32.206Z,73.70
2017-12-02T08:38:59.784Z,74.30
2017-12-02T08:41:27.360Z,74.00
2017-12-02T08:43:54.980Z,74.00
2017-12-02T08:46:23.338Z,73.90
2017-12-02T08:48:50.924Z,73.90
2017-12-02T08:51:19.309Z,75.00
2017-12-02T08:53:46.874Z,75.00
2017-12-02T08:56:14.467Z,74.90
2017-12-02T08:58:42.069Z,75.40
2017-12-02T09:01:10.460Z,75.20
2017-12-02T09:03:38.796Z,75.20
2017-12-02T09:06:06.449Z,75.30
2017-12-02T09:08:34.039Z,75.90
2017-12-02T09:11:01.618Z,75.50
2017-12-02T09:13:30.033Z,74.60
2017-12-02T09:15:57.633Z,74.60
2017-12-02T09:18:25.213Z,74.90
2017-12-02T09:20:53.626Z,74.70
2017-12-02T09:23:21.219Z,74.70
2017-12-02T09:25:48.802Z,74.60
2017-12-02T09:28:16.446Z,74.40
2017-12-02T09:30:44.060Z,74.70
2017-12-02T09:33:11.639Z,74.40
2017-12-02T09:35:39.269Z,74.10
2017-12-02T09:38:06.877Z,74.80
2017-12-02T09:40:34.456Z,73.70
2017-12-02T09:43:02.083Z,74.10
2017-12-02T09:45:29.693Z,75.00
2017-12-02T09:47:58.039Z,73.90
2017-12-02T09:50:25.665Z,73.90
2017-12-02T09:52:53.263Z,73.90
2017-12-02T09:55:20.836Z,74.10
2017-12-02T09:57:48.503Z,74.60
2017-12-02T10:00:16.104Z,75.60
2017-12-02T10:02:43.685Z,75.60
2017-12-02T10:05:11.331Z,74.00
2017-12-02T10:07:38.913Z,74.30
2017-12-02T10:10:06.500Z,73.80
2017-12-02T10:12:34.147Z,74.80
2017-12-02T10:15:01.798Z,75.50
2017-12-02T10:17:29.381Z,72.90
2017-12-02T10:19:57.061Z,74.20
2017-12-02T10:22:25.415Z,75.50
2017-12-02T10:24:53.040Z,75.50
2017-12-02T10:27:20.663Z,76.50
2017-12-02T10:29:49.012Z,71.70
2017-12-02T10:32:16.599Z,71.70
2017-12-02T10:34:44.997Z,71.50
2017-12-02T10:37:12.586Z,71.50
2017-12-02T10:39:40.192Z,71.10
2017-12-02T10:42:07.813Z,69.20
2017-12-02T10:44:35.414Z,67.90
2017-12-02T10:47:03.045Z,67.40
2017-12-02T10:49:31.445Z,70.40
2017-12-02T10:51:59.024Z,70.40
2017-12-02T10:54:27.386Z,67.10
2017-12-02T10:56:55.007Z,67.00
2017-12-02T10:59:22.618Z,67.40
2017-12-02T11:01:50.954Z,65.30
2017-12-02T11:04:18.575Z,65.20
2017-12-02T11:06:47.013Z,66.10
2017-12-02T11:09:14.565Z,66.10
2017-12-02T11:11:42.192Z,66.90
2017-12-02T11:14:09.758Z,65.40
2017-12-02T11:16:37.311Z,65.00
2017-12-02T11:19:04.938Z,63.70
2017-12-02T11:21:33.290Z,65.00
2017-12-02T11:24:00.856Z,64.90
2017-12-02T11:26:28.484Z,65.10
2017-12-02T11:28:56.054Z,66.00
2017-12-02T11:31:23.596Z,65.50
2017-12-02T11:33:51.198Z,66.50
2017-12-02T11:36:18.786Z,65.70
2017-12-02T11:38:47.151Z,67.20
2017-12-02T11:41:14.748Z,67.20
2017-12-02T11:43:42.330Z,67.20
2017-12-02T11:46:09.900Z,67.20
2017-12-02T11:48:37.528Z,67.60
2017-12-02T11:51:05.112Z,68.30
2017-12-02T11:53:33.712Z,68.50
2017-12-02T11:56:01.320Z,68.10
2017-12-02T11:58:29.741Z,67.70
2017-12-02T12:00:57.289Z,67.70
2017-12-02T12:03:24.907Z,69.00
2017-12-02T12:05:53.238Z,69.20
2017-12-02T12:08:20.827Z,69.20
2017-12-02T12:10:48.414Z,69.10
2017-12-02T12:13:16.729Z,68.80
2017-12-02T12:15:44.300Z,68.80
2017-12-02T12:18:11.908Z,69.40
2017-12-02T12:20:39.475Z,70.20
2017-12-02T12:23:07.054Z,69.80
2017-12-02T12:25:34.688Z,69.40
2017-12-02T12:28:03.038Z,70.40
2017-12-02T12:30:30.610Z,70.40
2017-12-02T12:32:58.192Z,69.70
2017-12-02T12:35:26.563Z,69.10
2017-12-02T12:37:54.897Z,69.20
2017-12-02T12:40:22.501Z,69.20
2017-12-02T12:42:50.844Z,69.40
2017-12-02T12:45:18.403Z,69.40
2017-12-02T12:47:45.984Z,69.70
2017-12-02T12:50:13.588Z,70.30
2017-12-02T12:52:41.156Z,71.60
2017-12-02T12:55:08.784Z,70.70
2017-12-02T12:57:36.377Z,70.50
2017-12-02T13:00:03.950Z,69.50
2017-12-02T13:02:31.542Z,70.20
2017-12-02T13:04:59.121Z,70.90
2017-12-02T13:07:27.473Z,71.10
2017-12-02T13:09:55.070Z,71.10
2017-12-02T13:12:22.657Z,71.30
2017-12-02T13:14:50.231Z,71.00
2017-12-02T13:17:17.826Z,71.10
2017-12-02T13:19:45.389Z,71.50
2017-12-02T13:22:13.744Z,71.30
2017-12-02T13:24:41.343Z,71.20
2017-12-02T13:27:09.662Z,71.50
2017-12-02T13:29:37.217Z,71.50
2017-12-02T13:32:04.815Z,72.00
2017-12-02T13:34:32.392Z,71.50
2017-12-02T13:37:00.769Z,71.50
2017-12-02T13:39:28.398Z,71.50
2017-12-02T13:41:56.737Z,71.90
2017-12-02T13:44:24.345Z,71.90
2017-12-02T13:46:51.963Z,72.20
2017-12-02T13:49:19.526Z,71.80
2017-12-02T13:51:47.120Z,71.50
2017-12-02T13:54:14.744Z,71.70
2017-12-02T13:56:42.312Z,72.20
2017-12-02T13:59:09.890Z,72.00
2017-12-02T14:01:37.582Z,72.20
2017-12-02T14:04:05.166Z,72.60
2017-12-02T14:06:32.730Z,72.90
2017-12-02T14:09:00.342Z,72.20
2017-12-02T14:11:28.676Z,72.00
2017-12-02T14:13:56.245Z,72.10
2017-12-02T14:16:23.833Z,71.60
2017-12-02T14:18:52.189Z,71.80
2017-12-02T14:21:19.849Z,71.40
2017-12-02T14:23:47.435Z,71.40
2017-12-02T14:26:15.002Z,72.00
2017-12-02T14:28:42.584Z,71.90
2017-12-02T14:31:10.177Z,72.20
2017-12-02T14:33:37.762Z,71.60
2017-12-02T14:36:05.327Z,72.00
2017-12-02T14:38:32.952Z,71.70
2017-12-02T14:41:00.514Z,72.00
2017-12-02T14:43:28.073Z,71.80
2017-12-02T14:45:55.683Z,71.90
2017-12-02T14:48:23.237Z,72.10
2017-12-02T14:50:50.829Z,72.20
2017-12-02T14:53:19.186Z,72.20
2017-12-02T14:55:46.745Z,72.20
2017-12-02T14:58:14.300Z,72.30
2017-12-02T15:00:41.906Z,72.00
2017-12-02T15:03:09.465Z,71.80
2017-12-02T15:05:37.047Z,71.80
2017-12-02T15:08:04.683Z,71.70
2017-12-02T15:10:32.276Z,71.70
2017-12-02T15:12:59.839Z,71.90
2017-12-02T15:15:27.438Z,72.00
2017-12-02T15:17:54.999Z,71.40
2017-12-02T15:20:22.593Z,71.00
2017-12-02T15:22:50.184Z,71.40
2017-12-02T15:25:17.738Z,71.30
2017-12-02T15:27:46.943Z,71.60
2017-12-02T15:30:14.538Z,71.50
2017-12-02T15:32:42.088Z,71.90
2017-12-02T15:35:09.640Z,72.20
2017-12-02T15:37:37.235Z,72.20
2017-12-02T15:40:05.566Z,72.30
2017-12-02T15:42:33.897Z,72.40
2017-12-02T15:45:01.467Z,72.50
2017-12-02T15:47:29.329Z,72.10
2017-12-02T15:49:56.901Z,72.40
2017-12-02T15:52:24.526Z,72.50
2017-12-02T15:54:52.920Z,72.40
2017-12-02T15:57:21.249Z,71.90
2017-12-02T15:59:48.848Z,71.90
2017-12-02T16:02:17.196Z,72.20
2017-12-02T16:04:44.762Z,72.20
2017-12-02T16:07:12.372Z,71.50
2017-12-02T16:09:39.939Z,71.30
2017-12-02T16:12:07.540Z,71.50
2017-12-02T16:14:35.121Z,71.50
2017-12-02T16:17:03.444Z,71.30
2017-12-02T16:19:31.032Z,71.30
2017-12-02T16:21:58.623Z,71.30
2017-12-02T16:24:26.953Z,71.70
2017-12-02T16:26:54.523Z,71.60
2017-12-02T16:29:22.174Z,71.50
2017-12-02T16:31:49.750Z,71.30
2017-12-02T16:34:17.335Z,71.90
2017-12-02T16:36:45.738Z,72.20
2017-12-02T16:39:13.308Z,72.20
2017-12-02T16:41:40.892Z,72.20
2017-12-02T16:44:08.496Z,72.10
2017-12-02T16:46:36.841Z,71.80
2017-12-02T16:49:04.402Z,71.80
2017-12-02T16:51:32.011Z,71.80
2017-12-02T16:53:59.574Z,72.20
2017-12-02T16:56:27.219Z,72.20
2017-12-02T16:58:54.821Z,71.50
2017-12-02T17:01:22.461Z,71.00
2017-12-02T17:03:50.046Z,71.30
2017-12-02T17:06:17.635Z,71.60
2017-12-02T17:08:45.206Z,71.00
2017-12-02T17:11:12.769Z,71.50
2017-12-02T17:13:40.354Z,71.40
2017-12-02T17:16:07.952Z,71.00
2017-12-02T17:18:35.556Z,71.60
2017-12-02T17:21:03.941Z,71.80
2017-12-02T17:23:32.276Z,71.80
2017-12-02T17:25:59.858Z,71.80
2017-12-02T17:28:27.486Z,72.00
2017-12-02T17:30:55.075Z,72.00
2017-12-02T17:33:22.666Z,71.40
2017-12-02T17:35:51.029Z,70.90
2017-12-02T17:38:20.092Z,71.20
2017-12-02T17:40:47.701Z,71.20
2017-12-02T17:43:16.115Z,70.80
2017-12-02T17:45:44.501Z,70.70
2017-12-02T17:48:12.149Z,70.70
2017-12-02T17:50:39.750Z,71.10
2017-12-02T17:53:07.312Z,71.30
2017-12-02T17:55:34.899Z,71.30
2017-12-02T17:58:03.263Z,70.90
2017-12-02T18:00:31.595Z,71.00
2017-12-02T18:02:59.152Z,71.00
2017-12-02T18:05:26.736Z,70.50
2017-12-02T18:07:54.324Z,70.40
2017-12-02T18:10:22.677Z,70.50
2017-12-02T18:12:50.291Z,70.40
2017-12-02T18:15:17.856Z,70.60
2017-12-02T18:17:45.444Z,70.30
2017-12-02T18:20:13.020Z,70.80
2017-12-02T18:22:40.584Z,70.20
2017-12-02T18:25:08.145Z,69.40
2017-12-02T18:27:35.750Z,69.90
2017-12-02T18:30:03.315Z,70.30
2017-12-02T18:32:30.877Z,70.70
2017-12-02T18:34:58.475Z,70.30
2017-12-02T18:37:26.048Z,69.20
2017-12-02T18:39:53.605Z,69.50
2017-12-02T18:42:21.202Z,69.00
2017-12-02T18:44:48.770Z,69.30
2017-12-02T18:47:16.329Z,68.80
2017-12-02T18:49:43.911Z,69.30
2017-12-02T18:52:12.592Z,69.80
2017-12-02T18:54:40.192Z,69.40
2017-12-02T18:57:07.794Z,69.20
2017-12-02T18:59:35.361Z,69.20
2017-12-02T19:02:02.917Z,69.60
2017-12-02T19:04:30.529Z,69.40
2017-12-02T19:06:58.113Z,69.80
2017-12-02T19:09:26.619Z,69.60
2017-12-02T19:11:54.294Z,69.60
2017-12-02T19:14:22.145Z,69.90
2017-12-02T19:16:50.247Z,69.50
2017-12-02T19:19:18.650Z,69.80
2017-12-02T19:21:46.442Z,69.60
2017-12-02T19:24:14.554Z,69.40
2017-12-02T19:26:42.142Z,69.30
2017-12-02T19:29:09.687Z,68.90
2017-12-02T19:31:37.269Z,69.20
2017-12-02T19:34:04.860Z,69.30
2017-12-02T19:36:33.190Z,68.70
2017-12-02T19:39:00.769Z,68.60
2017-12-02T19:41:28.343Z,68.90
2017-12-02T19:43:56.688Z,68.70
2017-12-02T19:46:24.286Z,68.70
2017-12-02T19:48:52.648Z,68.50
2017-12-02T19:51:20.200Z,68.40
2017-12-02T19:53:47.757Z,68.30
2017-12-02T19:56:15.340Z,68.40
2017-12-02T19:58:43.677Z,67.40
2017-12-02T20:01:11.233Z,67.40
2017-12-02T20:03:38.833Z,67.70
2017-12-02T20:06:07.185Z,67.90
2017-12-02T20:08:34.759Z,67.80
2017-12-02T20:11:02.393Z,67.90
2017-12-02T20:13:30.003Z,68.30
2017-12-02T20:15:58.343Z,68.30
2017-12-02T20:18:25.936Z,68.20
2017-12-02T20:20:54.269Z,68.60
2017-12-02T20:23:21.816Z,68.60
2017-12-02T20:25:49.435Z,68.50
2017-12-02T20:28:17.738Z,68.70
2017-12-02T20:30:45.303Z,68.70
2017-12-02T20:33:12.893Z,68.20
2017-12-02T20:35:41.204Z,67.80
2017-12-02T20:38:09.585Z,68.30
2017-12-02T20:40:37.193Z,68.30
2017-12-02T20:43:04.785Z,68.70
2017-12-02T20:45:33.127Z,69.40
2017-12-02T20:48:00.728Z,69.40
2017-12-02T20:50:28.286Z,69.30
2017-12-02T20:52:55.833Z,69.50
2017-12-02T20:55:23.458Z,70.00
2017-12-02T20:57:51.023Z,70.10
2017-12-02T21:00:18.616Z,70.40
2017-12-02T21:02:46.207Z,70.30
2017-12-02T21:05:14.534Z,70.30
2017-12-02T21:07:42.116Z,70.30
2017-12-02T21:10:09.715Z,70.10
2017-12-02T21:12:38.053Z,70.40
2017-12-02T21:15:05.620Z,70.40
2017-12-02T21:17:33.208Z,70.00
2017-12-02T21:20:01.524Z,70.50
2017-12-02T21:22:29.079Z,70.50
2017-12-02T21:24:56.687Z,70.10
2017-12-02T21:27:24.266Z,70.80
2017-12-02T21:29:52.598Z,71.10
2017-12-02T21:32:20.973Z,71.40
2017-12-02T21:34:48.594Z,71.30
2017-12-02T21:37:16.372Z,71.00
2017-12-02T21:39:43.964Z,71.20
2017-12-02T21:42:11.522Z,71.40
2017-12-02T21:44:39.146Z,71.20
2017-12-02T21:47:06.826Z,71.10
2017-12-02T21:49:34.411Z,70.60
2017-12-02T21:52:01.969Z,70.80
2017-12-02T21:54:29.554Z,71.10
2017-12-02T21:56:57.121Z,70.60
2017-12-02T21:59:25.445Z,71.40
2017-12-02T22:01:53.030Z,71.30
2017-12-02T22:04:20.587Z,71.80
2017-12-02T22:06:48.923Z,72.00
2017-12-02T22:09:16.503Z,72.80
2017-12-02T22:11:44.110Z,72.00
2017-12-02T22:14:12.457Z,72.90
2017-12-02T22:16:40.095Z,72.30
2017-12-02T22:19:07.752Z,72.30
2017-12-02T22:21:36.083Z,72.50
2017-12-02T22:24:03.731Z,72.50
2017-12-02T22:26:31.303Z,73.20
2017-12-02T22:28:58.891Z,72.60
2017-12-02T22:31:26.489Z,72.80
2017-12-02T22:33:54.061Z,72.90
2017-12-02T22:36:21.639Z,73.00
2017-12-02T22:38:49.229Z,73.10
2017-12-02T22:41:17.602Z,73.40
2017-12-02T22:43:45.196Z,73.40
2017-12-02T22:46:12.786Z,73.40
2017-12-02T22:48:40.348Z,73.40
2017-12-02T22:51:07.938Z,73.50
2017-12-02T22:53:36.331Z,73.40
2017-12-02T22:56:03.944Z,73.40
2017-12-02T22:58:31.555Z,72.90
2017-12-02T23:00:59.168Z,73.00
2017-12-02T23:03:26.742Z,72.90
2017-12-02T23:05:54.311Z,73.10
2017-12-02T23:08:22.678Z,73.10
2017-12-02T23:10:50.283Z,73.10
2017-12-02T23:13:17.856Z,73.10
2017-12-02T23:15:45.482Z,73.10
2017-12-02T23:18:13.831Z,73.00
2017-12-02T23:20:41.406Z,73.00
2017-12-02T23:23:09.783Z,73.00
2017-12-02T23:25:38.157Z,73.10
2017-12-02T23:28:05.740Z,73.00
2017-12-02T23:30:34.122Z,73.00
2017-12-02T23:33:01.686Z,73.00
2017-12-02T23:35:29.236Z,73.10
2017-12-02T23:37:57.589Z,72.90
2017-12-02T23:40:25.156Z,72.90
2017-12-02T23:42:53.507Z,72.90
2017-12-02T23:45:21.105Z,72.90
2017-12-02T23:47:49.437Z,72.70
2017-12-02T23:50:17.021Z,72.80
2017-12-02T23:52:44.616Z,73.00
2017-12-02T23:55:12.209Z,72.90
2017-12-02T23:57:39.759Z,72.80
